Gan-ji-an-huo4266 — 4444 — position and weather

sailwx.info

Track history (hours):
 
Tides and Currents Weather Stations Pressure Air Temp Water Temp Dewpoint Dewpoint Depression Visibility Wind Speed Wind Dir Waves Ship Positions

Gan-ji-an-huo4266

Last reported at 2018-Jun-02 10:28 UTC. Time now 2018-Jun-18 23:19 UTC.
Position N 31°58' E 120°26'.
Warning: this ship's position is 16 days out of date.

Length 38 m.

MMSI: 413779206.

Date/timePositionNaut miles runAvg speedWind from/ knotsBaromVisibWave heightAir tempDewpointWater temp
2018-Jun-02 10:28N 31°58' E 120°26'1 0.1
2018-Jun-01 20:47N 31°59' E 120°27'1 0.1
2018-Jun-01 12:30N 31°58' E 120°26'0 0.0
2018-Jun-01 10:52N 31°58' E 120°26'0 0.0
2018-Jun-01 10:30N 31°58' E 120°26'0 0.0
2018-Jun-01 09:48N 31°58' E 120°26'0 0.0
2018-Jun-01 09:25N 31°58' E 120°26'0 0.0
2018-Jun-01 08:59N 31°58' E 120°26'0 0.0
2018-Jun-01 08:29N 31°58' E 120°26'0 0.0
2018-Jun-01 08:00N 31°58' E 120°26'0 0.0
2018-Jun-01 07:28N 31°58' E 120°26'0 0.0
2018-Jun-01 06:50N 31°58' E 120°26'0 0.0
2018-Jun-01 05:47N 31°58' E 120°26'0 0.0
2018-Jun-01 05:01N 31°58' E 120°26'0 0.0
2018-Jun-01 04:57N 31°58' E 120°26'0 0.0
2018-Jun-01 04:10N 31°58' E 120°26'0 0.0
2018-Jun-01 03:41N 31°58' E 120°26'0 0.0
2018-Jun-01 03:29N 31°58' E 120°26'0 0.0
2018-Jun-01 01:32N 31°58' E 120°26'0 0.0
2018-Jun-01 01:18N 31°58' E 120°26'1 1.3
2018-Jun-01 00:54N 31°59' E 120°26'47 5.3
2018-May-31 16:02N 31°38' E 121°16'2 6.3
2018-May-31 15:41N 31°36' E 121°18'2 5.9
2018-May-31 15:19N 31°34' E 121°19'2 1.5
2018-May-31 13:50N 31°32' E 121°19'0 0.0
2018-May-31 13:30N 31°32' E 121°19'0 0.0
2018-May-31 12:20N 31°32' E 121°19'  
Track history (hours):
 
Tides and Currents Weather Stations Pressure Air Temp Water Temp Dewpoint Dewpoint Depression Visibility Wind Speed Wind Dir Waves Ship Positions

Gan-ji-an-huo4266

Last reported at 2018-Jun-02 10:28 UTC. Time now 2018-Jun-18 23:19 UTC.
Position N 31°58' E 120°26'.
Warning: this ship's position is 16 days out of date.

Length 38 m.

MMSI: 413779206.

Date/timePositionNaut miles runAvg speedWind from/ knotsBaromVisibWave heightAir tempDewpointWater temp
2018-Jun-02 10:28N 31°58' E 120°26'1 0.1
2018-Jun-01 20:47N 31°59' E 120°27'1 0.1
2018-Jun-01 12:30N 31°58' E 120°26'0 0.0
2018-Jun-01 10:52N 31°58' E 120°26'0 0.0
2018-Jun-01 10:30N 31°58' E 120°26'0 0.0
2018-Jun-01 09:48N 31°58' E 120°26'0 0.0
2018-Jun-01 09:25N 31°58' E 120°26'0 0.0
2018-Jun-01 08:59N 31°58' E 120°26'0 0.0
2018-Jun-01 08:29N 31°58' E 120°26'0 0.0
2018-Jun-01 08:00N 31°58' E 120°26'0 0.0
2018-Jun-01 07:28N 31°58' E 120°26'0 0.0
2018-Jun-01 06:50N 31°58' E 120°26'0 0.0
2018-Jun-01 05:47N 31°58' E 120°26'0 0.0
2018-Jun-01 05:01N 31°58' E 120°26'0 0.0
2018-Jun-01 04:57N 31°58' E 120°26'0 0.0
2018-Jun-01 04:10N 31°58' E 120°26'0 0.0
2018-Jun-01 03:41N 31°58' E 120°26'0 0.0
2018-Jun-01 03:29N 31°58' E 120°26'0 0.0
2018-Jun-01 01:32N 31°58' E 120°26'0 0.0
2018-Jun-01 01:18N 31°58' E 120°26'1 1.3
2018-Jun-01 00:54N 31°59' E 120°26'47 5.3
2018-May-31 16:02N 31°38' E 121°16'2 6.3
2018-May-31 15:41N 31°36' E 121°18'2 5.9
2018-May-31 15:19N 31°34' E 121°19'2 1.5
2018-May-31 13:50N 31°32' E 121°19'0 0.0
2018-May-31 13:30N 31°32' E 121°19'0 0.0
2018-May-31 12:20N 31°32' E 121°19'  

Dump ship's entire track history